Time,TemperatureF,DewpointF,PressureIn,WindDirection,WindDirectionDegrees,WindSpeedMPH,WindSpeedGustMPH,Humidity,HourlyPrecipIn,Conditions,Clouds,dailyrainin,SoftwareType,DateUTC
2017-05-23 00:00:00,63.1,61.6,29.95,East,98,0.0,0.0,95,0.00,,,0.08,Wunderground v.1.13,2017-05-23 04:00:00,
2017-05-23 00:05:00,63.1,61.6,29.95,East,98,0.0,0.0,95,0.00,,,0.00,Wunderground v.1.13,2017-05-23 04:05:00,
2017-05-23 00:10:00,63.1,61.6,29.95,East,98,0.0,0.0,95,0.00,,,0.00,Wunderground v.1.13,2017-05-23 04:10:00,
2017-05-23 00:15:00,63.0,61.5,29.95,East,98,0.0,0.0,95,0.00,,,0.00,Wunderground v.1.13,2017-05-23 04:15:00,
2017-05-23 00:20:00,63.1,61.6,29.95,East,98,0.0,0.0,95,0.00,,,0.00,Wunderground v.1.13,2017-05-23 04:20:00,
2017-05-23 00:25:00,63.0,61.5,29.95,East,98,0.0,0.0,95,0.00,,,0.00,Wunderground v.1.13,2017-05-23 04:25:00,
2017-05-23 00:30:00,63.0,61.5,29.95,East,98,0.0,0.0,95,0.00,,,0.00,Wunderground v.1.13,2017-05-23 04:30:00,
2017-05-23 00:40:00,62.9,61.4,29.95,East,98,0.0,0.0,95,0.00,,,0.00,Wunderground v.1.13,2017-05-23 04:40:00,
2017-05-23 00:45:00,62.8,61.3,29.95,East,98,0.0,0.0,95,0.00,,,0.00,Wunderground v.1.13,2017-05-23 04:45:00,
2017-05-23 00:50:00,62.7,61.2,29.95,East,98,0.0,0.0,95,0.00,,,0.00,Wunderground v.1.13,2017-05-23 04:50:00,
2017-05-23 00:55:00,62.8,61.3,29.95,East,98,0.0,0.0,95,0.00,,,0.00,Wunderground v.1.13,2017-05-23 04:55:00,
2017-05-23 01:00:00,62.7,61.2,29.95,East,98,0.0,0.0,95,0.00,,,0.00,Wunderground v.1.13,2017-05-23 05:00:00,
2017-05-23 01:10:00,62.7,61.2,29.95,East,98,0.0,0.0,95,0.00,,,0.00,Wunderground v.1.13,2017-05-23 05:10:00,
2017-05-23 01:15:00,62.9,61.7,29.94,East,98,0.0,0.0,96,0.00,,,0.00,Wunderground v.1.13,2017-05-23 05:15:00,
2017-05-23 01:20:00,62.9,61.7,29.94,East,98,0.0,0.0,96,0.00,,,0.00,Wunderground v.1.13,2017-05-23 05:20:00,
2017-05-23 01:25:00,62.8,61.6,29.94,East,98,0.0,0.0,96,0.00,,,0.00,Wunderground v.1.13,2017-05-23 05:25:00,
2017-05-23 01:30:00,62.8,61.6,29.94,East,98,0.0,0.0,96,0.00,,,0.00,Wunderground v.1.13,2017-05-23 05:30:00,
2017-05-23 01:40:00,62.7,61.5,29.94,East,98,0.0,0.0,96,0.00,,,0.00,Wunderground v.1.13,2017-05-23 05:40:00,
2017-05-23 01:50:00,62.7,61.5,29.94,East,98,0.0,0.0,96,0.00,,,0.00,Wunderground v.1.13,2017-05-23 05:50:00,
2017-05-23 01:55:00,62.7,61.5,29.94,East,98,0.0,0.0,96,0.00,,,0.00,Wunderground v.1.13,2017-05-23 05:55:00,
2017-05-23 02:00:00,62.7,61.5,29.94,East,98,0.0,0.0,96,0.00,,,0.00,Wunderground v.1.13,2017-05-23 06:00:00,
2017-05-23 02:05:00,62.7,61.5,29.94,East,98,0.0,0.0,96,0.00,,,0.00,Wunderground v.1.13,2017-05-23 06:05:00,
2017-05-23 02:10:00,62.7,61.5,29.94,East,98,0.0,0.0,96,0.00,,,0.00,Wunderground v.1.13,2017-05-23 06:10:00,
2017-05-23 02:20:00,62.7,61.5,29.93,East,98,0.0,0.0,96,0.00,,,0.00,Wunderground v.1.13,2017-05-23 06:20:00,
2017-05-23 02:30:00,63.1,62.2,29.92,East,98,0.0,0.0,97,0.00,,,0.00,Wunderground v.1.13,2017-05-23 06:30:00,
2017-05-23 02:35:00,63.1,61.9,29.92,East,98,0.0,0.0,96,0.00,,,0.00,Wunderground v.1.13,2017-05-23 06:35:00,